Brookfield, Missouri
Current Conditions -  °F | °C
As of 10:55 PM on Monday 20 Oct 2014 (Local Time) from KIRK Reporting Station
Clear Clear  
Wind Chill: 46°   Ceiling: Unl
Heat Index: 46°   Visibility: 10mi
Dew Point: 44°   Wind: 3mph
Humidity: 93%   Direction: 290°WNW
Pressure: 30.06"   Gusts: NA
Location:  39.78°N, 93.07°W
Report Text: KIRK 210355Z AUTO 29003KT 10SM CLR 08/07 A3006 RMK AO2 SLP182 T00780067
Loading
Personal Weather Stations






























Interactive Weather Map
Tropical Storm Tracking
New forecast layout! Learn more

10-Day Weather Forecast

Advertisements
Track Severe Weather on mobile